sensor_id;sensor_type;location;lat;lon;timestamp;P1;durP1;ratioP1;P2;durP2;ratioP2
19364;SDS011;9818;48.382;10.850;2022-07-23T04:05:42;7.70;;;5.27;;
19364;SDS011;9818;48.382;10.850;2022-07-23T04:08:11;6.43;;;4.93;;
19364;SDS011;9818;48.382;10.850;2022-07-23T05:22:44;5.83;;;4.37;;
19364;SDS011;9818;48.382;10.850;2022-07-23T05:25:13;8.33;;;5.03;;
19364;SDS011;9818;48.382;10.850;2022-07-23T05:27:44;6.00;;;4.43;;
19364;SDS011;9818;48.382;10.850;2022-07-23T05:30:13;7.20;;;4.70;;
19364;SDS011;9818;48.382;10.850;2022-07-23T05:32:42;5.33;;;4.40;;
19364;SDS011;9818;48.382;10.850;2022-07-23T05:35:11;6.23;;;4.37;;
19364;SDS011;9818;48.382;10.850;2022-07-23T05:37:40;5.30;;;4.53;;
19364;SDS011;9818;48.382;10.850;2022-07-23T05:40:09;5.27;;;4.63;;
19364;SDS011;9818;48.382;10.850;2022-07-23T05:42:39;4.93;;;4.30;;
19364;SDS011;9818;48.382;10.850;2022-07-23T05:45:12;4.40;;;4.00;;
19364;SDS011;9818;48.382;10.850;2022-07-23T05:47:41;5.07;;;4.13;;
19364;SDS011;9818;48.382;10.850;2022-07-23T05:50:11;5.23;;;4.57;;
19364;SDS011;9818;48.382;10.850;2022-07-23T05:52:40;4.97;;;4.47;;
19364;SDS011;9818;48.382;10.850;2022-07-23T05:55:10;4.30;;;3.90;;
19364;SDS011;9818;48.382;10.850;2022-07-23T05:57:40;6.17;;;3.93;;
19364;SDS011;9818;48.382;10.850;2022-07-23T06:00:12;6.03;;;4.27;;
19364;SDS011;9818;48.382;10.850;2022-07-23T06:02:41;5.07;;;4.57;;
19364;SDS011;9818;48.382;10.850;2022-07-23T06:05:10;4.63;;;4.17;;
19364;SDS011;9818;48.382;10.850;2022-07-23T06:07:39;4.70;;;4.30;;
19364;SDS011;9818;48.382;10.850;2022-07-23T06:10:08;5.90;;;4.17;;
19364;SDS011;9818;48.382;10.850;2022-07-23T06:12:37;5.57;;;4.37;;
19364;SDS011;9818;48.382;10.850;2022-07-23T06:15:07;6.20;;;4.27;;
19364;SDS011;9818;48.382;10.850;2022-07-23T06:17:39;6.57;;;4.87;;
19364;SDS011;9818;48.382;10.850;2022-07-23T06:20:08;5.17;;;4.53;;
19364;SDS011;9818;48.382;10.850;2022-07-23T06:22:37;5.23;;;4.47;;
19364;SDS011;9818;48.382;10.850;2022-07-23T06:25:07;5.70;;;5.10;;
19364;SDS011;9818;48.382;10.850;2022-07-23T06:27:36;5.70;;;4.87;;
19364;SDS011;9818;48.382;10.850;2022-07-23T06:30:06;5.17;;;4.63;;
19364;SDS011;9818;48.382;10.850;2022-07-23T06:32:38;5.20;;;4.63;;
19364;SDS011;9818;48.382;10.850;2022-07-23T06:35:07;5.47;;;4.80;;
19364;SDS011;9818;48.382;10.850;2022-07-23T06:37:36;8.67;;;5.13;;
19364;SDS011;9818;48.382;10.850;2022-07-23T06:40:05;5.90;;;5.20;;
19364;SDS011;9818;48.382;10.850;2022-07-23T06:42:35;6.17;;;5.53;;
19364;SDS011;9818;48.382;10.850;2022-07-23T07:34:44;5.20;;;4.70;;
19364;SDS011;9818;48.382;10.850;2022-07-23T07:37:13;5.37;;;4.60;;
19364;SDS011;9818;48.382;10.850;2022-07-23T07:39:42;6.85;;;5.20;;
19364;SDS011;9818;48.382;10.850;2022-07-23T07:42:13;11.20;;;4.97;;
19364;SDS011;9818;48.382;10.850;2022-07-23T07:44:42;5.53;;;5.00;;
19364;SDS011;9818;48.382;10.850;2022-07-23T07:47:10;6.23;;;5.17;;
19364;SDS011;9818;48.382;10.850;2022-07-23T07:49:40;6.17;;;5.23;;
19364;SDS011;9818;48.382;10.850;2022-07-23T07:52:09;6.37;;;5.27;;
19364;SDS011;9818;48.382;10.850;2022-07-23T07:54:38;5.13;;;4.30;;
19364;SDS011;9818;48.382;10.850;2022-07-23T07:57:07;5.50;;;5.00;;
19364;SDS011;9818;48.382;10.850;2022-07-23T07:59:39;4.97;;;4.37;;
19364;SDS011;9818;48.382;10.850;2022-07-23T08:02:08;6.17;;;5.03;;
19364;SDS011;9818;48.382;10.850;2022-07-23T08:04:36;6.57;;;4.90;;
19364;SDS011;9818;48.382;10.850;2022-07-23T08:24:27;5.07;;;4.57;;
19364;SDS011;9818;48.382;10.850;2022-07-23T08:34:24;4.95;;;4.47;;
19364;SDS011;9818;48.382;10.850;2022-07-23T08:36:52;5.95;;;4.65;;
19364;SDS011;9818;48.382;10.850;2022-07-23T08:39:21;4.65;;;4.07;;
19364;SDS011;9818;48.382;10.850;2022-07-23T08:51:46;4.20;;;3.80;;
19364;SDS011;9818;48.382;10.850;2022-07-23T08:54:16;3.95;;;3.60;;
19364;SDS011;9818;48.382;10.850;2022-07-23T08:56:45;5.90;;;3.85;;
19364;SDS011;9818;48.382;10.850;2022-07-23T08:59:14;4.07;;;3.72;;
19364;SDS011;9818;48.382;10.850;2022-07-23T09:01:43;3.80;;;3.35;;
19364;SDS011;9818;48.382;10.850;2022-07-23T09:04:11;6.07;;;3.80;;
19364;SDS011;9818;48.382;10.850;2022-07-23T09:06:40;5.53;;;3.35;;
19364;SDS011;9818;48.382;10.850;2022-07-23T09:09:19;3.78;;;3.35;;
19364;SDS011;9818;48.382;10.850;2022-07-23T09:12:01;4.70;;;4.07;;
19364;SDS011;9818;48.382;10.850;2022-07-23T09:14:38;3.75;;;3.45;;
19364;SDS011;9818;48.382;10.850;2022-07-23T09:50:39;6.15;;;4.03;;
19364;SDS011;9818;48.382;10.850;2022-07-23T15:30:07;5.95;;;5.15;;
19364;SDS011;9818;48.382;10.850;2022-07-23T16:04:54;5.05;;;4.60;;
19364;SDS011;9818;48.382;10.850;2022-07-23T16:07:22;5.18;;;4.35;;
19364;SDS011;9818;48.382;10.850;2022-07-23T16:09:51;5.63;;;4.65;;
19364;SDS011;9818;48.382;10.850;2022-07-23T16:12:20;5.35;;;4.70;;
19364;SDS011;9818;48.382;10.850;2022-07-23T16:14:49;5.55;;;5.00;;
19364;SDS011;9818;48.382;10.850;2022-07-23T16:17:17;5.60;;;4.50;;
19364;SDS011;9818;48.382;10.850;2022-07-23T17:36:46;4.85;;;4.40;;
19364;SDS011;9818;48.382;10.850;2022-07-23T17:39:16;5.13;;;4.63;;
19364;SDS011;9818;48.382;10.850;2022-07-23T17:54:12;7.30;;;5.20;;
19364;SDS011;9818;48.382;10.850;2022-07-23T19:16:14;5.25;;;4.18;;
19364;SDS011;9818;48.382;10.850;2022-07-23T19:18:42;4.88;;;4.35;;
19364;SDS011;9818;48.382;10.850;2022-07-23T19:21:11;4.18;;;3.78;;
19364;SDS011;9818;48.382;10.850;2022-07-23T19:23:40;5.70;;;4.60;;
19364;SDS011;9818;48.382;10.850;2022-07-23T19:26:09;5.35;;;4.70;;
19364;SDS011;9818;48.382;10.850;2022-07-23T19:28:37;5.13;;;3.75;;
19364;SDS011;9818;48.382;10.850;2022-07-23T19:31:09;3.92;;;3.55;;
19364;SDS011;9818;48.382;10.850;2022-07-23T19:33:39;4.82;;;4.15;;
19364;SDS011;9818;48.382;10.850;2022-07-23T19:36:08;4.40;;;4.00;;
19364;SDS011;9818;48.382;10.850;2022-07-23T19:38:37;6.40;;;4.82;;
19364;SDS011;9818;48.382;10.850;2022-07-23T19:41:06;5.57;;;4.40;;
19364;SDS011;9818;48.382;10.850;2022-07-23T19:43:34;5.45;;;4.75;;
19364;SDS011;9818;48.382;10.850;2022-07-23T19:46:03;5.97;;;3.80;;
19364;SDS011;9818;48.382;10.850;2022-07-23T19:48:35;6.05;;;4.93;;
19364;SDS011;9818;48.382;10.850;2022-07-23T19:51:04;5.22;;;4.72;;
19364;SDS011;9818;48.382;10.850;2022-07-23T19:53:32;5.85;;;4.13;;
19364;SDS011;9818;48.382;10.850;2022-07-23T19:56:01;6.18;;;5.32;;
19364;SDS011;9818;48.382;10.850;2022-07-23T19:58:30;4.97;;;4.45;;
19364;SDS011;9818;48.382;10.850;2022-07-23T20:00:59;6.30;;;4.70;;
19364;SDS011;9818;48.382;10.850;2022-07-23T20:03:28;6.73;;;4.43;;
19364;SDS011;9818;48.382;10.850;2022-07-23T20:05:59;5.43;;;4.77;;
19364;SDS011;9818;48.382;10.850;2022-07-23T20:08:28;5.07;;;4.17;;
19364;SDS011;9818;48.382;10.850;2022-07-23T20:10:57;5.40;;;4.90;;
19364;SDS011;9818;48.382;10.850;2022-07-23T20:13:25;5.37;;;4.53;;
19364;SDS011;9818;48.382;10.850;2022-07-23T20:15:54;4.07;;;3.67;;
19364;SDS011;9818;48.382;10.850;2022-07-23T20:18:23;5.27;;;4.77;;
19364;SDS011;9818;48.382;10.850;2022-07-23T20:20:53;5.07;;;4.00;;
19364;SDS011;9818;48.382;10.850;2022-07-23T20:23:24;6.27;;;5.37;;
19364;SDS011;9818;48.382;10.850;2022-07-23T20:25:53;5.37;;;4.73;;
19364;SDS011;9818;48.382;10.850;2022-07-23T20:28:22;6.30;;;4.70;;
19364;SDS011;9818;48.382;10.850;2022-07-23T20:30:51;6.73;;;4.93;;
19364;SDS011;9818;48.382;10.850;2022-07-23T20:33:22;5.57;;;4.60;;
19364;SDS011;9818;48.382;10.850;2022-07-23T23:02:37;6.60;;;5.90;;
19364;SDS011;9818;48.382;10.850;2022-07-23T23:05:06;6.43;;;5.80;;
19364;SDS011;9818;48.382;10.850;2022-07-23T23:07:36;6.67;;;5.93;;
19364;SDS011;9818;48.382;10.850;2022-07-23T23:10:05;7.43;;;6.33;;
19364;SDS011;9818;48.382;10.850;2022-07-23T23:12:34;8.27;;;6.03;;
19364;SDS011;9818;48.382;10.850;2022-07-23T23:15:06;6.57;;;5.93;;
